createdAt,value
2023-03-15T00:02:10.776Z,99264.88
2023-03-15T00:04:42.804Z,99264.60
2023-03-15T00:07:11.342Z,99281.48
2023-03-15T00:09:44.648Z,99282.08
2023-03-15T00:12:15.180Z,99293.95
2023-03-15T00:14:43.916Z,99307.75
2023-03-15T00:17:15.410Z,99314.64
2023-03-15T00:19:43.973Z,99327.04
2023-03-15T00:22:17.081Z,99333.26
2023-03-15T00:24:45.552Z,99336.91
2023-03-15T00:27:16.993Z,99340.45
2023-03-15T00:29:45.748Z,99346.77
2023-03-15T00:32:17.228Z,99349.34
2023-03-15T00:34:48.673Z,99352.09
2023-03-15T00:37:19.241Z,99353.68
2023-03-15T00:39:48.454Z,99354.66
2023-03-15T00:42:16.983Z,99352.80
2023-03-15T00:44:47.465Z,99359.59
2023-03-15T00:47:17.140Z,99371.80
2023-03-15T00:49:48.321Z,99378.84
2023-03-15T00:52:22.003Z,99384.44
2023-03-15T00:54:55.639Z,99375.58
2023-03-15T00:57:34.183Z,99385.23
2023-03-15T01:00:24.397Z,99394.94
2023-03-15T01:02:56.577Z,99399.10
2023-03-15T01:05:26.044Z,99403.58
2023-03-15T01:07:56.752Z,99406.14
2023-03-15T01:10:24.912Z,99409.05
2023-03-15T01:12:55.812Z,99404.96
2023-03-15T01:15:24.155Z,99411.70
2023-03-15T01:17:56.463Z,99419.60
2023-03-15T01:20:26.605Z,99427.55
2023-03-15T01:22:54.691Z,99431.22
2023-03-15T01:25:25.946Z,99439.56
2023-03-15T01:27:54.464Z,99448.03
2023-03-15T01:30:29.747Z,99454.59
2023-03-15T01:32:58.235Z,99469.39
2023-03-15T01:35:28.445Z,99477.88
2023-03-15T01:37:58.792Z,99478.59
2023-03-15T01:40:27.752Z,99479.27
2023-03-15T01:43:06.022Z,99482.91
2023-03-15T01:46:01.767Z,99478.60
2023-03-15T01:48:45.212Z,99477.27
2023-03-15T01:51:44.900Z,99479.28
2023-03-15T01:54:15.612Z,99481.13
2023-03-15T01:57:00.209Z,99484.98
2023-03-15T01:59:48.983Z,99487.16
2023-03-15T02:02:18.947Z,99491.17
2023-03-15T02:05:09.388Z,99490.73
2023-03-15T02:07:49.410Z,99503.27
2023-03-15T02:10:30.329Z,99512.89
2023-03-15T02:13:05.514Z,99516.48
2023-03-15T02:15:36.761Z,99514.88
2023-03-15T02:18:06.851Z,99525.98
2023-03-15T02:21:34.031Z,99531.15
2023-03-15T02:24:56.444Z,99540.38
2023-03-15T02:27:35.064Z,99546.13
2023-03-15T02:30:07.709Z,99551.30
2023-03-15T02:32:36.247Z,99555.78
2023-03-15T02:35:05.418Z,99564.58
2023-03-15T02:37:34.125Z,99578.01
2023-03-15T02:40:04.348Z,99586.95
2023-03-15T02:42:32.739Z,99592.98
2023-03-15T02:45:01.630Z,99593.29
2023-03-15T02:47:33.554Z,99598.29
2023-03-15T02:50:07.832Z,99598.66
2023-03-15T02:52:38.743Z,99602.81
2023-03-15T02:55:09.954Z,99609.56
2023-03-15T02:57:38.249Z,99614.39
2023-03-15T03:00:14.115Z,99616.64
2023-03-15T03:02:53.994Z,99620.30
2023-03-15T03:05:22.956Z,99625.30
2023-03-15T03:07:51.040Z,99627.35
2023-03-15T03:10:24.530Z,99628.91
2023-03-15T03:12:56.093Z,99629.63
2023-03-15T03:15:34.532Z,99631.70
2023-03-15T03:18:03.857Z,99638.77
2023-03-15T03:20:34.691Z,99644.80
2023-03-15T03:23:05.980Z,99648.09
2023-03-15T03:25:36.191Z,99653.27
2023-03-15T03:28:04.388Z,99654.14
2023-03-15T03:30:36.014Z,99661.20
2023-03-15T03:33:06.695Z,99666.02
2023-03-15T03:35:34.574Z,99667.73
2023-03-15T03:38:02.329Z,99675.42
2023-03-15T03:40:34.874Z,99684.51
2023-03-15T03:43:07.165Z,99691.83
2023-03-15T03:45:35.876Z,99702.05
2023-03-15T03:48:04.782Z,99700.94
2023-03-15T03:50:34.256Z,99698.53
2023-03-15T03:53:03.463Z,99704.19
2023-03-15T03:55:45.963Z,99704.89
2023-03-15T03:58:17.409Z,99708.02
2023-03-15T04:00:57.592Z,99711.69
2023-03-15T04:03:28.092Z,99716.91
2023-03-15T04:06:07.725Z,99724.54
2023-03-15T04:08:41.172Z,99723.52
2023-03-15T04:11:14.278Z,99717.00
2023-03-15T04:13:45.074Z,99719.95
2023-03-15T04:16:16.385Z,99725.82
2023-03-15T04:19:05.363Z,99726.04
2023-03-15T04:21:37.614Z,99733.29
2023-03-15T04:24:26.123Z,99736.94
2023-03-15T04:27:14.055Z,99738.52
2023-03-15T04:29:57.951Z,99744.04
2023-03-15T04:32:44.741Z,99745.45
2023-03-15T04:35:30.817Z,99741.73
2023-03-15T04:38:26.347Z,99743.86
2023-03-15T04:41:18.283Z,99744.08
2023-03-15T04:44:05.708Z,99745.01
2023-03-15T04:46:40.364Z,99748.98
2023-03-15T04:49:16.668Z,99750.04
2023-03-15T04:51:57.330Z,99757.13
2023-03-15T04:55:01.356Z,99755.80
2023-03-15T04:57:56.182Z,99752.91
2023-03-15T05:00:43.001Z,99753.84
2023-03-15T05:03:27.560Z,99756.61
2023-03-15T05:06:28.894Z,99759.19
2023-03-15T05:09:19.093Z,99762.63
2023-03-15T05:12:13.327Z,99767.45
2023-03-15T05:15:01.673Z,99769.52
2023-03-15T05:17:45.958Z,99772.77
2023-03-15T05:20:42.956Z,99782.77
2023-03-15T05:23:33.159Z,99796.33
2023-03-15T05:26:14.063Z,99806.65
2023-03-15T05:29:05.324Z,99813.70
2023-03-15T05:31:53.580Z,99814.38
2023-03-15T05:34:44.887Z,99818.84
2023-03-15T05:37:33.608Z,99826.88
2023-03-15T05:40:45.994Z,99827.02
2023-03-15T05:43:35.268Z,99833.67
2023-03-15T05:46:31.512Z,99837.89
2023-03-15T05:49:10.790Z,99844.55
2023-03-15T05:51:57.871Z,99852.90
2023-03-15T05:54:36.645Z,99860.02
2023-03-15T05:57:24.408Z,99863.05
2023-03-15T06:00:16.712Z,99869.50
2023-03-15T06:02:48.103Z,99873.39
2023-03-15T06:05:29.598Z,99883.28
2023-03-15T06:07:58.862Z,99884.61
2023-03-15T06:10:31.777Z,99890.23
2023-03-15T06:13:01.629Z,99892.08
2023-03-15T06:15:30.458Z,99896.43
2023-03-15T06:18:00.552Z,99901.34
2023-03-15T06:20:32.911Z,99915.08
2023-03-15T06:23:07.338Z,99922.11
2023-03-15T06:25:42.084Z,99926.38
2023-03-15T06:28:11.147Z,99927.86
2023-03-15T06:30:42.797Z,99926.94
2023-03-15T06:33:11.975Z,99927.35
2023-03-15T06:35:40.784Z,99931.73
2023-03-15T06:38:12.630Z,99931.95
2023-03-15T06:40:42.485Z,99931.75
2023-03-15T06:43:18.289Z,99936.05
2023-03-15T06:45:53.162Z,99936.27
2023-03-15T06:48:22.389Z,99938.37
2023-03-15T06:51:05.679Z,99938.59
2023-03-15T06:53:40.605Z,99937.33
2023-03-15T06:56:11.930Z,99940.48
2023-03-15T06:58:40.548Z,99944.31
2023-03-15T07:01:13.829Z,99946.73
2023-03-15T07:03:46.143Z,99951.42
2023-03-15T07:06:15.246Z,99957.36
2023-03-15T07:08:48.611Z,99964.58
2023-03-15T07:11:17.019Z,99967.70
2023-03-15T07:14:12.255Z,99962.91
2023-03-15T07:16:40.768Z,99961.09
2023-03-15T07:19:09.323Z,99964.92
2023-03-15T07:21:45.264Z,99965.13
2023-03-15T07:24:15.780Z,99969.45
2023-03-15T07:26:44.458Z,99974.92
2023-03-15T07:29:12.713Z,99977.63
2023-03-15T07:32:01.897Z,99984.63
2023-03-15T07:34:37.132Z,99986.27
2023-03-15T07:37:05.938Z,99990.17
2023-03-15T07:39:40.494Z,99993.87
2023-03-15T07:42:11.581Z,99993.30
2023-03-15T07:44:42.664Z,99993.17
2023-03-15T07:47:14.456Z,100004.34
2023-03-15T07:49:50.444Z,100010.54
2023-03-15T07:52:20.961Z,100011.74
2023-03-15T07:54:49.621Z,100012.48
2023-03-15T07:57:18.514Z,100014.05
2023-03-15T07:59:52.260Z,100021.04
2023-03-15T08:02:30.688Z,100030.34
2023-03-15T08:04:59.611Z,100037.47
2023-03-15T08:07:31.584Z,100042.30
2023-03-15T08:10:10.918Z,100042.26
2023-03-15T08:12:51.557Z,100045.83
2023-03-15T08:15:32.636Z,100049.27
2023-03-15T08:18:08.756Z,100055.48
2023-03-15T08:20:49.024Z,100059.40
2023-03-15T08:23:21.511Z,100064.17
2023-03-15T08:25:51.330Z,100065.70
2023-03-15T08:28:20.287Z,100065.88
2023-03-15T08:30:48.740Z,100070.56
2023-03-15T08:33:24.530Z,100072.27
2023-03-15T08:36:00.843Z,100078.30
2023-03-15T08:38:48.494Z,100090.76
2023-03-15T08:41:20.023Z,100093.20
2023-03-15T08:43:52.808Z,100095.47
2023-03-15T08:46:27.531Z,100097.77
2023-03-15T08:48:55.897Z,100097.58
2023-03-15T08:51:26.014Z,100101.42
2023-03-15T08:53:54.350Z,100106.44
2023-03-15T08:56:23.077Z,100109.91
2023-03-15T08:58:51.278Z,100111.67
2023-03-15T09:01:21.003Z,100115.20
2023-03-15T09:03:50.409Z,100119.27
2023-03-15T09:06:18.609Z,100126.84
2023-03-15T09:08:53.479Z,100132.21
2023-03-15T09:11:25.118Z,100138.38
2023-03-15T09:13:56.683Z,100141.15
2023-03-15T09:16:24.817Z,100140.23
2023-03-15T09:18:55.307Z,100141.05
2023-03-15T09:21:27.400Z,100139.23
2023-03-15T09:24:01.080Z,100146.23
2023-03-15T09:26:40.004Z,100145.62
2023-03-15T09:29:16.588Z,100143.27
2023-03-15T09:31:49.265Z,100145.83
2023-03-15T09:34:21.966Z,100142.90
2023-03-15T09:36:54.770Z,100145.63
2023-03-15T09:39:25.220Z,100146.37
2023-03-15T09:41:58.359Z,100147.02
2023-03-15T09:44:51.991Z,100144.51
2023-03-15T09:47:36.805Z,100146.61
2023-03-15T09:50:23.851Z,100144.40
2023-03-15T09:52:59.881Z,100142.23
2023-03-15T09:55:35.681Z,100142.09
2023-03-15T09:58:16.046Z,100149.47
2023-03-15T10:00:53.495Z,100148.59
2023-03-15T10:03:56.488Z,100144.90
2023-03-15T10:06:36.405Z,100147.65
2023-03-15T10:09:46.102Z,100145.33
2023-03-15T10:13:21.375Z,100138.85
2023-03-15T10:16:33.673Z,100139.41
2023-03-15T10:19:50.035Z,100143.03
2023-03-15T10:22:48.763Z,100144.11
2023-03-15T10:25:34.986Z,100142.56
2023-03-15T10:29:00.450Z,100144.15
2023-03-15T10:32:17.638Z,100140.77
2023-03-15T10:35:21.628Z,100138.52
2023-03-15T10:38:05.286Z,100137.98
2023-03-15T10:40:55.792Z,100139.98
2023-03-15T10:43:35.261Z,100139.73
2023-03-15T10:46:27.107Z,100139.30
2023-03-15T10:49:25.840Z,100137.86
2023-03-15T10:52:08.833Z,100142.74
2023-03-15T10:55:37.839Z,100141.20
2023-03-15T10:59:11.525Z,100139.73
2023-03-15T11:01:56.518Z,100141.09
2023-03-15T11:04:33.787Z,100144.14
2023-03-15T11:07:16.095Z,100146.25
2023-03-15T11:10:19.033Z,100144.98
2023-03-15T11:13:45.410Z,100144.00
2023-03-15T11:16:40.197Z,100145.13
2023-03-15T11:20:15.207Z,100150.47
2023-03-15T11:24:30.173Z,100151.05
2023-03-15T11:28:10.927Z,100151.43
2023-03-15T11:31:32.150Z,100155.52
2023-03-15T11:34:56.735Z,100161.04
2023-03-15T11:38:15.315Z,100164.69
2023-03-15T11:41:59.319Z,100171.15
2023-03-15T11:45:30.450Z,100176.28
2023-03-15T11:49:02.901Z,100179.55
2023-03-15T11:52:14.067Z,100178.55
2023-03-15T11:56:20.572Z,100172.64
2023-03-15T12:03:36.646Z,100160.89
2023-03-15T12:24:19.131Z,100165.48
2023-03-15T12:27:33.671Z,100168.55
2023-03-15T12:35:14.548Z,100163.70
2023-03-15T12:38:23.675Z,100165.95
2023-03-15T12:41:53.967Z,100167.34
2023-03-15T12:44:40.126Z,100171.60
2023-03-15T12:48:09.604Z,100173.01
2023-03-15T12:50:48.032Z,100172.48
2023-03-15T12:53:31.887Z,100175.02
2023-03-15T12:56:42.836Z,100176.55
2023-03-15T12:59:35.341Z,100181.83
2023-03-15T13:02:44.538Z,100178.70
2023-03-15T13:06:01.330Z,100178.27
2023-03-15T13:09:18.188Z,100182.19
2023-03-15T13:12:15.850Z,100182.88
2023-03-15T13:14:58.169Z,100185.06
2023-03-15T13:17:59.782Z,100189.75
2023-03-15T13:21:12.057Z,100188.33
2023-03-15T13:23:48.958Z,100191.16
2023-03-15T13:27:09.274Z,100198.63
2023-03-15T13:29:42.737Z,100196.42
2023-03-15T13:32:18.191Z,100204.36
2023-03-15T13:34:49.462Z,100210.09
2023-03-15T13:37:48.619Z,100212.27
2023-03-15T13:40:58.986Z,100207.46
2023-03-15T13:43:46.997Z,100206.75
2023-03-15T13:46:35.819Z,100213.11
2023-03-15T13:52:49.028Z,100208.96
2023-03-15T13:55:53.779Z,100213.69
2023-03-15T13:58:31.228Z,100212.84
2023-03-15T14:01:26.865Z,100210.80
2023-03-15T14:04:29.962Z,100206.30
2023-03-15T14:07:34.894Z,100208.59
2023-03-15T14:10:17.054Z,100214.48
2023-03-15T14:12:49.331Z,100213.25
2023-03-15T14:15:50.539Z,100215.25
2023-03-15T14:22:44.833Z,100219.45
2023-03-15T14:26:00.642Z,100219.74
2023-03-15T14:54:36.584Z,100233.66
2023-03-15T15:00:42.177Z,100245.77
2023-03-15T15:04:05.636Z,100254.34
2023-03-15T15:06:58.894Z,100262.95
2023-03-15T15:09:30.860Z,100270.13
2023-03-15T15:12:05.196Z,100275.92
2023-03-15T15:14:50.290Z,100277.40
2023-03-15T15:21:13.758Z,100288.73
2023-03-15T15:24:42.796Z,100292.20
2023-03-15T15:28:01.446Z,100296.27
2023-03-15T15:31:13.353Z,100301.55
2023-03-15T15:34:35.769Z,100307.20
2023-03-15T15:37:58.958Z,100307.59
2023-03-15T15:41:13.304Z,100304.77
2023-03-15T15:44:20.188Z,100309.16
2023-03-15T15:46:57.317Z,100307.65
2023-03-15T15:49:33.658Z,100305.56
2023-03-15T15:52:09.915Z,100304.21
2023-03-15T15:54:46.316Z,100305.41
2023-03-15T15:57:31.784Z,100307.95
2023-03-15T16:00:30.855Z,100313.71
2023-03-15T16:03:32.878Z,100323.27
2023-03-15T16:06:10.033Z,100323.88
2023-03-15T16:08:42.621Z,100330.00
2023-03-15T16:11:18.225Z,100330.98
2023-03-15T16:14:02.440Z,100330.91
2023-03-15T16:16:54.538Z,100335.30
2023-03-15T16:19:41.433Z,100336.63
2023-03-15T16:22:35.228Z,100340.52
2023-03-15T16:25:26.226Z,100345.25
2023-03-15T16:28:11.133Z,100348.11
2023-03-15T16:30:46.886Z,100348.54
2023-03-15T16:33:39.430Z,100354.81
2023-03-15T16:36:39.657Z,100357.98
2023-03-15T16:39:21.911Z,100360.16
2023-03-15T16:42:13.542Z,100364.34
2023-03-15T16:44:56.672Z,100368.02
2023-03-15T16:47:53.627Z,100371.35
2023-03-15T16:50:51.512Z,100377.77
2023-03-15T16:53:57.495Z,100381.07
2023-03-15T16:56:46.588Z,100387.48
2023-03-15T16:59:28.717Z,100394.77
2023-03-15T17:02:03.857Z,100398.07
2023-03-15T17:04:54.219Z,100403.45
2023-03-15T17:08:15.869Z,100408.17
2023-03-15T17:11:03.993Z,100411.36
2023-03-15T17:18:36.581Z,100415.98
2023-03-15T17:22:24.974Z,100425.17
2023-03-15T17:25:26.059Z,100426.27
2023-03-15T17:28:32.503Z,100430.89
2023-03-15T17:31:46.160Z,100438.64
2023-03-15T17:35:27.215Z,100440.05
2023-03-15T17:38:03.331Z,100443.17
2023-03-15T17:40:39.712Z,100445.27
2023-03-15T17:43:15.185Z,100447.88
2023-03-15T17:46:02.918Z,100445.67
2023-03-15T17:48:47.071Z,100450.88
2023-03-15T17:51:35.412Z,100454.20
2023-03-15T17:54:27.169Z,100456.48
2023-03-15T17:57:19.172Z,100458.91
2023-03-15T18:00:04.607Z,100460.31
2023-03-15T18:02:56.846Z,100461.70
2023-03-15T18:05:31.536Z,100458.11
2023-03-15T18:08:11.719Z,100460.53
2023-03-15T18:11:26.691Z,100460.92
2023-03-15T18:14:13.463Z,100464.95
2023-03-15T18:17:08.892Z,100468.27
2023-03-15T18:19:50.543Z,100470.91
2023-03-15T18:26:14.848Z,100474.06
2023-03-15T18:28:56.868Z,100479.94
2023-03-15T18:31:53.511Z,100481.00
2023-03-15T18:34:31.457Z,100483.77
2023-03-15T18:37:11.478Z,100484.98
2023-03-15T18:39:51.276Z,100483.45
2023-03-15T18:42:36.693Z,100486.23
2023-03-15T18:45:30.497Z,100485.39
2023-03-15T18:48:07.789Z,100483.35
2023-03-15T18:50:43.585Z,100486.45
2023-03-15T18:53:18.766Z,100492.13
2023-03-15T18:56:21.357Z,100499.72
2023-03-15T18:59:13.817Z,100501.96
2023-03-15T19:01:54.529Z,100500.60
2023-03-15T19:04:23.826Z,100500.77
2023-03-15T19:06:56.070Z,100500.42
2023-03-15T19:09:39.775Z,100504.04
2023-03-15T19:12:24.714Z,100504.89
2023-03-15T19:15:00.936Z,100510.73
2023-03-15T19:18:11.533Z,100513.66
2023-03-15T19:21:00.166Z,100512.98
2023-03-15T19:23:46.780Z,100515.56
2023-03-15T19:26:22.229Z,100516.60
2023-03-15T19:29:20.129Z,100521.73
2023-03-15T19:32:26.730Z,100528.43
2023-03-15T19:35:22.877Z,100528.95
2023-03-15T19:38:10.585Z,100527.58
2023-03-15T19:44:52.254Z,100532.91
2023-03-15T19:47:48.085Z,100533.92
2023-03-15T19:54:11.920Z,100541.98
2023-03-15T19:56:42.347Z,100544.39
2023-03-15T19:59:18.620Z,100547.65
2023-03-15T20:02:00.850Z,100549.36
2023-03-15T20:04:29.886Z,100552.10
2023-03-15T20:06:59.363Z,100556.91
2023-03-15T20:09:38.738Z,100553.65
2023-03-15T20:12:19.235Z,100553.65
2023-03-15T20:14:53.948Z,100558.11
2023-03-15T20:17:25.639Z,100560.34
2023-03-15T20:20:04.245Z,100567.71
2023-03-15T20:22:40.528Z,100569.75
2023-03-15T20:25:18.699Z,100577.82
2023-03-15T20:27:55.859Z,100587.23
2023-03-15T20:30:37.224Z,100591.35
2023-03-15T20:33:14.995Z,100597.16
2023-03-15T20:35:45.142Z,100599.02
2023-03-15T20:38:14.779Z,100598.48
2023-03-15T20:40:46.047Z,100604.48
2023-03-15T20:43:22.577Z,100609.44
2023-03-15T20:46:14.312Z,100613.34
2023-03-15T20:48:44.590Z,100616.23
2023-03-15T20:51:21.768Z,100614.65
2023-03-15T20:53:54.310Z,100613.08
2023-03-15T20:56:26.312Z,100612.71
2023-03-15T20:58:58.427Z,100614.92
2023-03-15T21:01:49.909Z,100616.62
2023-03-15T21:06:23.968Z,100619.69
2023-03-15T21:09:02.800Z,100620.34
2023-03-15T21:12:37.660Z,100625.30
2023-03-15T21:18:42.250Z,100626.62
2023-03-15T21:21:14.478Z,100629.18
2023-03-15T21:23:42.891Z,100630.73
2023-03-15T21:26:16.693Z,100636.21
2023-03-15T21:28:48.535Z,100635.86
2023-03-15T21:31:36.443Z,100637.20
2023-03-15T21:34:14.444Z,100640.09
2023-03-15T21:36:45.793Z,100645.41
2023-03-15T21:39:19.902Z,100647.11
2023-03-15T21:41:54.693Z,100648.29
2023-03-15T21:44:25.699Z,100651.16
2023-03-15T21:46:57.365Z,100653.70
2023-03-15T21:49:48.158Z,100657.79
2023-03-15T21:52:21.524Z,100660.66
2023-03-15T21:54:59.190Z,100664.40
2023-03-15T21:57:36.581Z,100664.73
2023-03-15T22:00:11.641Z,100667.81
2023-03-15T22:02:46.599Z,100673.80
2023-03-15T22:05:15.392Z,100676.37
2023-03-15T22:07:52.649Z,100677.24
2023-03-15T22:10:26.603Z,100680.14
2023-03-15T22:13:00.629Z,100679.80
2023-03-15T22:15:28.914Z,100679.77
2023-03-15T22:17:57.241Z,100686.95
2023-03-15T22:20:30.364Z,100686.41
2023-03-15T22:23:05.106Z,100689.48
2023-03-15T22:26:09.485Z,100692.54
2023-03-15T22:28:55.598Z,100690.97
2023-03-15T22:31:34.117Z,100690.45
2023-03-15T22:34:12.203Z,100695.41
2023-03-15T22:36:43.792Z,100695.76
2023-03-15T22:39:15.825Z,100695.25
2023-03-15T22:41:54.336Z,100697.63
2023-03-15T22:44:30.462Z,100695.23
2023-03-15T22:47:10.601Z,100699.52
2023-03-15T22:49:48.385Z,100703.79
2023-03-15T22:52:29.522Z,100705.84
2023-03-15T22:55:20.883Z,100699.31
2023-03-15T22:57:53.662Z,100702.21
2023-03-15T23:00:32.274Z,100702.38
2023-03-15T23:03:13.165Z,100708.20
2023-03-15T23:05:58.852Z,100709.20
2023-03-15T23:08:37.678Z,100711.75
2023-03-15T23:11:24.832Z,100711.56
2023-03-15T23:13:58.454Z,100712.75
2023-03-15T23:16:28.830Z,100713.94
2023-03-15T23:19:07.735Z,100716.14
2023-03-15T23:21:42.610Z,100717.66
2023-03-15T23:24:22.378Z,100717.80
2023-03-15T23:27:06.947Z,100716.88
2023-03-15T23:29:54.223Z,100717.01
2023-03-15T23:32:44.566Z,100716.48
2023-03-15T23:35:23.973Z,100716.61
2023-03-15T23:38:01.609Z,100716.09
2023-03-15T23:40:36.081Z,100717.29
2023-03-15T23:43:14.608Z,100720.20
2023-03-15T23:45:58.797Z,100722.96
2023-03-15T23:48:36.627Z,100729.80
2023-03-15T23:51:05.480Z,100731.17
2023-03-15T23:53:42.325Z,100730.84
2023-03-15T23:56:22.488Z,100729.98
2023-03-15T23:59:03.118Z,100731.16
